Thunder radar more information blitzortung!


Radar de pluja more information rain snow radar


Visita la nostra xarxa de llocs de meteo:

Template documentation
and downloads

And another site



No particular awareness of the weather is required.    There are no Weather-warnings

Pagina Historial Weather Underground text

Diari Resum May 10, 2017 Unitats:  Mètric    Imperial   Tant
« Previous Dia
SegĂźent Dia »
Diari Setmana Mensual Anual Personalitzada
  Maxima: Minima: Media:
Temperatura: -17.8 °C -10.7 °C -7.9 °C
Punt de rosada: -17.8 °C -12.8 °C -11.7 °C
Humitat: Humidity % 49 % 65 %
Wind Speed: 0 km/h 0 km/h 15 km/h
RĂ fegues de vent: 0 km/h - -
Vent:- - East
Pression baro: 0 hPa 33924.3 hPa -
Precipitacions: 0 mm    
Historical Graphs
 
 
Dades de taula per May 10, 2017
Temps Temperatura Punt de rosada Pression baro Vent Wind Speed RĂ fegues de vent Humitat Rainfall Rate (Hourly)
-17.8 °C -17.8 °C 0 hPa Calm     Humidity % 0 mm
00:00 -10.3 °C -12.1 °C 34063.2 hPa NE 2.6 km/h 5.1 km/h 81 % 0 mm
00:04 -9.2 °C -11.5 °C 34164.7 hPa ENE 6.8 km/h 6.8 km/h 76 % 0 mm
00:10 -10.3 °C -12.1 °C 34063.2 hPa NE 2.6 km/h 5.1 km/h 81 % 0 mm
00:20 -10.4 °C -12.2 °C 34063.2 hPa Calm   2.6 km/h 81 % 0 mm
00:30 -10.4 °C -12.2 °C 34063.2 hPa Calm   5.1 km/h 81 % 0 mm
00:40 -10.5 °C -12.3 °C 34063.2 hPa WNW 2.6 km/h 5.1 km/h 81 % 0 mm
00:50 -10.6 °C -12.3 °C 34063.2 hPa Calm   7.7 km/h 81 % 0 mm
01:00 -10.6 °C -12.4 °C 34063.2 hPa Calm   5.1 km/h 81 % 0 mm
01:10 -10.6 °C -12.3 °C 34063.2 hPa Calm   2.6 km/h 81 % 0 mm
01:20 -10.6 °C -12.3 °C 34063.2 hPa Calm   2.6 km/h 81 % 0 mm
01:30 -10.6 °C -12.2 °C 34063.2 hPa Calm   5.1 km/h 82 % 0 mm
01:40 -10.7 °C -12.4 °C 34063.2 hPa Calm   2.6 km/h 82 % 0 mm
01:50 -10.7 °C -12.3 °C 34063.2 hPa Calm     82 % 0 mm
02:00 -10.6 °C -12.3 °C 34063.2 hPa NNW 5.1 km/h 5.1 km/h 82 % 0 mm
02:10 -10.7 °C -12.3 °C 34063.2 hPa NNE 2.6 km/h 7.7 km/h 82 % 0 mm
02:20 -10.7 °C -12.3 °C 34063.2 hPa Calm   5.1 km/h 82 % 0 mm
02:30 -10.6 °C -12.4 °C 34063.2 hPa NNE 2.6 km/h 10.3 km/h 80 % 0 mm
02:40 -10.5 °C -12.4 °C 34029.3 hPa NNE 7.7 km/h 10.3 km/h 79 % 0 mm
02:50 -10.4 °C -12.6 °C 34063.2 hPa NNE 7.7 km/h 15.6 km/h 78 % 0 mm
03:00 -10.3 °C -12.6 °C 34063.2 hPa NE 7.7 km/h 10.3 km/h 77 % 0 mm
03:10 -10.2 °C -12.4 °C 34063.2 hPa NE 7.7 km/h 10.3 km/h 76 % 0 mm
03:20 -10.1 °C -12.4 °C 34097 hPa NNE 5.1 km/h 10.3 km/h 76 % 0 mm
03:30 -10.1 °C -12.4 °C 34097 hPa NNE 7.7 km/h 10.3 km/h 75 % 0 mm
03:40 -9.9 °C -12.4 °C 34063.2 hPa NNE 2.6 km/h 12.9 km/h 74 % 0 mm
03:50 -9.9 °C -12.6 °C 34063.2 hPa NNE 2.6 km/h 10.3 km/h 73 % 0 mm
04:00 -9.8 °C -12.6 °C 34063.2 hPa NE 7.7 km/h 12.9 km/h 72 % 0 mm
04:10 -9.8 °C -12.8 °C 34097 hPa NNE 12.9 km/h 15.6 km/h 70 % 0 mm
04:20 -9.6 °C -12.6 °C 34063.2 hPa NE 5.1 km/h 7.7 km/h 70 % 0 mm
04:30 -9.6 °C -12.6 °C 34063.2 hPa NE 5.1 km/h 15.6 km/h 70 % 0 mm
04:40 -9.4 °C -12.6 °C 34063.2 hPa NE 7.7 km/h 7.7 km/h 69 % 0 mm
04:50 -9.2 °C -12.5 °C 34097 hPa NNE 5.1 km/h 10.3 km/h 68 % 0 mm
05:00 -9.1 °C -12.5 °C 34097 hPa NNE 7.7 km/h 10.3 km/h 67 % 0 mm
05:10 -9.1 °C -12.6 °C 34063.2 hPa NNE 7.7 km/h 15.6 km/h 66 % 0 mm
05:20 -8.9 °C -12.4 °C 34097 hPa NE 2.6 km/h 10.3 km/h 66 % 0 mm
10:30 -8.7 °C -12.4 °C 34097 hPa North 6 km/h 6 km/h 65 % 0 mm
10:35 -8.7 °C -12.4 °C 34097 hPa ENE 9 km/h 9 km/h 64 % 0 mm
10:40 -8.6 °C -12.4 °C 34097 hPa NNE 6.8 km/h 6.8 km/h 64 % 0 mm
10:45 -8.6 °C -12.5 °C 34097 hPa NNW 5.6 km/h 5.6 km/h 63 % 0 mm
10:50 -8.4 °C -12.3 °C 34097 hPa NNE 6 km/h 6 km/h 64 % 0 mm
10:55 -8.5 °C -12.4 °C 34097 hPa NNE 6.8 km/h 6.8 km/h 63 % 0 mm
11:00 -8.4 °C -12.3 °C 34097 hPa NE 6 km/h 6 km/h 64 % 0 mm
11:05 -8.4 °C -12.3 °C 34097 hPa NE 7.6 km/h 7.6 km/h 63 % 0 mm
11:06 -8.4 °C -12.3 °C 34097 hPa NE 7.6 km/h 7.6 km/h 63 % 0 mm
11:11 -8.4 °C -12.5 °C 34063.2 hPa East 9 km/h 9 km/h 62 % 0 mm
11:16 -8.3 °C -12.3 °C 34063.2 hPa NE 6.3 km/h 6.3 km/h 62 % 0 mm
11:21 -8.2 °C -12.4 °C 34063.2 hPa North 3.1 km/h 3.1 km/h 61 % 0 mm
11:26 -8.1 °C -12.2 °C 34097 hPa Calm     62 % 0 mm
11:31 -8.1 °C -12.4 °C 34097 hPa ENE 9 km/h 9 km/h 60 % 0 mm
11:36 -8 °C -12.2 °C 34097 hPa East 3.1 km/h 3.1 km/h 61 % 0 mm
11:41 -7.8 °C -12.1 °C 34097 hPa ENE 3.7 km/h 4.2 km/h 61 % 0 mm
11:46 -7.7 °C -12.1 °C 34097 hPa NNE 5.6 km/h   60 % 0 mm
11:51 -7.4 °C -12 °C 34097 hPa ENE 9 km/h 9 km/h 59 % 0 mm
11:56 -7.5 °C -12.1 °C 34097 hPa ENE 6.3 km/h 6.3 km/h 59 % 0 mm
12:01 -7.2 °C -11.9 °C 34097 hPa East 6 km/h 6 km/h 58 % 0 mm
12:06 -7.1 °C -12.1 °C 34097 hPa ENE 6 km/h 6 km/h 56 % 0 mm
12:11 -6.7 °C -11.6 °C 34063.2 hPa ENE 9 km/h 9 km/h 57 % 0 mm
12:16 -6.6 °C -11.7 °C 34063.2 hPa ENE 9.3 km/h 9.8 km/h 55 % 0 mm
12:21 -6.5 °C -11.8 °C 34063.2 hPa SE 10.3 km/h 10.3 km/h 54 % 0 mm
12:26 -6.3 °C -11.8 °C 34063.2 hPa ENE 6 km/h 6 km/h 53 % 0 mm
12:31 -6.6 °C -12.4 °C 34063.2 hPa SE 17.9 km/h 17.9 km/h 51 % 0 mm
12:36 -6.4 °C -12.1 °C 34063.2 hPa Calm     52 % 0 mm
12:41 -6 °C -11.8 °C 34063.2 hPa NE 11.1 km/h 11.1 km/h 51 % 0 mm
12:46 -5.8 °C -11.7 °C 34063.2 hPa SE 14.5 km/h 14.5 km/h 51 % 0 mm
12:51 -6.1 °C -11.9 °C 34063.2 hPa SSE 17.9 km/h 17.9 km/h 51 % 0 mm
12:56 -6 °C -11.7 °C 34063.2 hPa ESE 11.1 km/h 11.1 km/h 52 % 0 mm
13:01 -6 °C -11.8 °C 34063.2 hPa East 15 km/h 15 km/h 51 % 0 mm
13:06 -6.1 °C -11.9 °C 34063.2 hPa ENE 15 km/h 15 km/h 51 % 0 mm
13:11 -6.1 °C -11.9 °C 34063.2 hPa East 15 km/h 15 km/h 51 % 0 mm
13:16 -5.8 °C -11.7 °C 34063.2 hPa SE 17.9 km/h 17.9 km/h 51 % 0 mm
13:21 -5.8 °C -11.9 °C 34063.2 hPa ESE 20.9 km/h 20.9 km/h 50 % 0 mm
13:26 -5.8 °C -11.9 °C 34063.2 hPa ESE 18.3 km/h 18.3 km/h 50 % 0 mm
13:31 -5.8 °C -11.9 °C 34063.2 hPa East 11.9 km/h 11.9 km/h 50 % 0 mm
13:36 -5.5 °C -11.6 °C 34063.2 hPa NNE 23.8 km/h 23.8 km/h 50 % 0 mm
13:41 -5.4 °C -11.3 °C 34063.2 hPa ESE 15.6 km/h 15.6 km/h 51 % 0 mm
13:46 -5.7 °C -11.9 °C 34063.2 hPa ENE 26.9 km/h 26.9 km/h 49 % 0 mm
13:51 -5.8 °C -12 °C 34063.2 hPa ESE 32.8 km/h 32.8 km/h 49 % 0 mm
13:56 -5.8 °C -11.8 °C 34063.2 hPa ESE 26.9 km/h 26.9 km/h 50 % 0 mm
14:01 -5.4 °C -11.3 °C 34063.2 hPa East 25.9 km/h 25.9 km/h 51 % 0 mm
14:06 -5.4 °C -11.4 °C 34063.2 hPa SE 20.9 km/h 20.9 km/h 50 % 0 mm
14:11 -5.2 °C -11.2 °C 34063.2 hPa ESE 15 km/h 15 km/h 51 % 0 mm
14:16 -5.7 °C -11.6 °C 34063.2 hPa East 26.9 km/h 26.9 km/h 51 % 0 mm
14:21 -5.7 °C -11.6 °C 34063.2 hPa ESE 26.9 km/h 26.9 km/h 51 % 0 mm
14:26 -5.6 °C -11.5 °C 34029.3 hPa SE 20.9 km/h 20.9 km/h 51 % 0 mm
14:31 -5.8 °C -11.7 °C 34029.3 hPa ESE 26.9 km/h 26.9 km/h 51 % 0 mm
14:36 -5.9 °C -11.8 °C 34029.3 hPa ESE 26.9 km/h 26.9 km/h 51 % 0 mm
14:41 -6.1 °C -11.9 °C 33992.1 hPa ENE 20.9 km/h 20.9 km/h 51 % 0 mm
14:46 -6.1 °C -11.8 °C 33992.1 hPa East 32.8 km/h 32.8 km/h 52 % 0 mm
14:51 -6.1 °C -11.8 °C 33992.1 hPa East 26.9 km/h 26.9 km/h 52 % 0 mm
14:56 -5.9 °C -11.6 °C 34029.3 hPa ESE 26.9 km/h 26.9 km/h 52 % 0 mm
15:01 -5.8 °C -11.5 °C 34029.3 hPa ESE 25.1 km/h 25.1 km/h 52 % 0 mm
15:06 -5.9 °C -11.6 °C 34029.3 hPa ESE 23.8 km/h 23.8 km/h 52 % 0 mm
15:11 -6 °C -11.6 °C 34029.3 hPa ESE 15 km/h 15 km/h 53 % 0 mm
15:16 -6 °C -11.7 °C 34029.3 hPa East 23.8 km/h 23.8 km/h 52 % 0 mm
15:21 -5.9 °C -11.6 °C 34029.3 hPa East 26.9 km/h 26.9 km/h 52 % 0 mm
15:26 -5.9 °C -11.5 °C 33992.1 hPa ESE 23.8 km/h 23.8 km/h 53 % 0 mm
15:31 -6 °C -11.6 °C 33992.1 hPa ESE 29.8 km/h 29.8 km/h 53 % 0 mm
15:36 -5.9 °C -11.4 °C 33992.1 hPa ESE 28.2 km/h 28.2 km/h 53 % 0 mm
15:41 -5.9 °C -11.3 °C 33992.1 hPa ESE 20.9 km/h 20.9 km/h 54 % 0 mm
15:46 -6 °C -11.6 °C 33992.1 hPa ESE 29.8 km/h 29.8 km/h 53 % 0 mm
15:51 -5.9 °C -11.6 °C 33992.1 hPa ENE 26.9 km/h 26.9 km/h 52 % 0 mm
15:56 -5.8 °C -11.6 °C 33992.1 hPa ENE 26.9 km/h 26.9 km/h 52 % 0 mm
16:01 -5.9 °C -11.6 °C 33992.1 hPa SE 26.4 km/h 26.4 km/h 52 % 0 mm
16:06 -5.9 °C -11.8 °C 33992.1 hPa ESE 23.8 km/h 23.8 km/h 51 % 0 mm
16:11 -5.9 °C -11.6 °C 33992.1 hPa ESE 23.8 km/h 23.8 km/h 52 % 0 mm
16:16 -6 °C -11.7 °C 33992.1 hPa ENE 29.8 km/h 29.8 km/h 52 % 0 mm
16:21 -6.1 °C -11.8 °C 33992.1 hPa ESE 23.8 km/h 23.8 km/h 52 % 0 mm
16:26 -6.1 °C -11.6 °C 33992.1 hPa ESE 32.8 km/h 32.8 km/h 53 % 0 mm
16:31 -6.1 °C -11.6 °C 33992.1 hPa ESE 26.9 km/h 26.9 km/h 53 % 0 mm
16:36 -6 °C -11.4 °C 33992.1 hPa ESE 23.8 km/h 23.8 km/h 54 % 0 mm
16:41 -6 °C -11.6 °C 33992.1 hPa SSE 15 km/h 15 km/h 53 % 0 mm
16:46 -6.1 °C -11.4 °C 33992.1 hPa SE 26.9 km/h 26.9 km/h 54 % 0 mm
16:52 -6.1 °C -11.4 °C 33992.1 hPa ESE 32.8 km/h 32.8 km/h 54 % 0 mm
16:57 -6.1 °C -11.3 °C 33992.1 hPa ESE 29.8 km/h 29.8 km/h 55 % 0 mm
17:02 -6.3 °C -11.4 °C 33992.1 hPa SE 26.9 km/h 26.9 km/h 56 % 0 mm
17:07 -6.3 °C -11.2 °C 33992.1 hPa ESE 17.9 km/h 19.2 km/h 57 % 0 mm
17:12 -6.4 °C -11.3 °C 33992.1 hPa ESE 26.9 km/h 26.9 km/h 57 % 0 mm
17:17 -6.5 °C -11.2 °C 33992.1 hPa SE 23.8 km/h 23.8 km/h 58 % 0 mm
17:22 -6.6 °C -11.3 °C 33992.1 hPa ESE 34.1 km/h 34.1 km/h 58 % 0 mm
17:27 -6.7 °C -11.4 °C 33992.1 hPa East 26.9 km/h 26.9 km/h 58 % 0 mm
17:32 -6.7 °C -11.3 °C 33992.1 hPa East 20.3 km/h 20.3 km/h 59 % 0 mm
17:37 -6.6 °C -11 °C 33992.1 hPa South 17.9 km/h 17.9 km/h 60 % 0 mm
17:42 -6.5 °C -11.1 °C 33992.1 hPa East 26.9 km/h 26.9 km/h 59 % 0 mm
17:47 -6.6 °C -11.2 °C 33992.1 hPa ESE 20.9 km/h 20.9 km/h 59 % 0 mm
17:52 -6.8 °C -11.3 °C 33992.1 hPa ENE 29.8 km/h 29.8 km/h 60 % 0 mm
17:57 -6.8 °C -11.1 °C 33958.2 hPa SSE 16.1 km/h 16.1 km/h 61 % 0 mm
18:03 -6.7 °C -11 °C 33958.2 hPa ESE 26.9 km/h 26.9 km/h 61 % 0 mm
18:08 -6.8 °C -11.1 °C 33958.2 hPa ESE 23.3 km/h 23.3 km/h 61 % 0 mm
18:13 -6.9 °C -11.2 °C 33992.1 hPa ENE 20.9 km/h 20.9 km/h 61 % 0 mm
18:18 -6.9 °C -11.1 °C 33992.1 hPa ESE 29.8 km/h 29.8 km/h 62 % 0 mm
18:23 -6.9 °C -11.1 °C 33992.1 hPa ESE 16.1 km/h 16.6 km/h 62 % 0 mm
18:28 -7 °C -11.2 °C 33992.1 hPa ESE 26.9 km/h 26.9 km/h 62 % 0 mm
18:33 -7.1 °C -11.2 °C 33992.1 hPa ESE 23.8 km/h 23.8 km/h 62 % 0 mm
18:38 -7.2 °C -11.2 °C 33992.1 hPa ESE 26.9 km/h 26.9 km/h 63 % 0 mm
18:43 -7.2 °C -11.2 °C 33992.1 hPa ENE 20.9 km/h 20.9 km/h 63 % 0 mm
18:48 -7.2 °C -11.2 °C 33992.1 hPa East 19.2 km/h 23.3 km/h 63 % 0 mm
18:53 -7.3 °C -11.2 °C 33992.1 hPa East 23.8 km/h 23.8 km/h 64 % 0 mm
18:58 -7.3 °C -11.1 °C 33992.1 hPa East 11.9 km/h 11.9 km/h 65 % 0 mm
19:04 -7.3 °C -11 °C 33992.1 hPa East 15 km/h 15 km/h 65 % 0 mm
19:09 -7.4 °C -11.3 °C 33992.1 hPa ESE 29.8 km/h 29.8 km/h 64 % 0 mm
19:14 -7.4 °C -11.3 °C 33958.2 hPa SE 23.8 km/h 23.8 km/h 64 % 0 mm
19:19 -7.4 °C -11.3 °C 33958.2 hPa ESE 20.9 km/h 20.9 km/h 64 % 0 mm
19:20 -9 °C -10.9 °C 33992.1 hPa NE 5.1 km/h 15.6 km/h 80 % 0 mm
19:25 -7.4 °C -11.3 °C 33958.2 hPa East 7.7 km/h 20.8 km/h 64 % 0 mm
19:30 -7.6 °C -11.6 °C 33992.1 hPa East 15 km/h 15 km/h 63 % 0 mm
19:35 -7.6 °C -11.4 °C 33992.1 hPa ENE 5.1 km/h 15.6 km/h 64 % 0 mm
19:40 -7.7 °C -11.5 °C 33992.1 hPa NNE 19.6 km/h 19.6 km/h 64 % 0 mm
19:45 -7.7 °C -11.6 °C 33992.1 hPa East 15.3 km/h 15.3 km/h 64 % 0 mm
19:50 -7.8 °C -11.6 °C 33992.1 hPa ENE 11.9 km/h 11.9 km/h 65 % 0 mm
19:55 -7.8 °C -11.6 °C 33992.1 hPa East 12.9 km/h 15.6 km/h 65 % 0 mm
20:00 -7.9 °C -11.5 °C 33992.1 hPa ESE 17.9 km/h 17.9 km/h 66 % 0 mm
20:05 -7.9 °C -11.5 °C 33992.1 hPa ESE 19.2 km/h 19.2 km/h 66 % 0 mm
20:10 -7.9 °C -11.5 °C 33992.1 hPa ENE 29.8 km/h 29.8 km/h 66 % 0 mm
20:15 -8 °C -11.6 °C 33992.1 hPa ENE 20.9 km/h 20.9 km/h 66 % 0 mm
20:20 -8.1 °C -11.5 °C 33992.1 hPa ENE 20.9 km/h 20.9 km/h 67 % 0 mm
20:22 -8.1 °C -11.6 °C 33992.1 hPa East 26.9 km/h 26.9 km/h 67 % 0 mm
20:27 -8.2 °C -11.3 °C 33992.1 hPa East 23.8 km/h 23.8 km/h 69 % 0 mm
20:30 -9.2 °C -11.2 °C 33992.1 hPa NE 7.7 km/h 15.6 km/h 79 % 0 mm
20:32 -8.2 °C -11.3 °C 33992.1 hPa NE 22 km/h 22 km/h 70 % 0 mm
20:37 -8.3 °C -11.3 °C 33992.1 hPa ENE 20.9 km/h 20.9 km/h 70 % 0 mm
20:40 -9.2 °C -11.2 °C 33958.2 hPa NE 7.7 km/h 10.3 km/h 79 % 0 mm
20:42 -8.3 °C -11.3 °C 33992.1 hPa NNE 20.9 km/h 20.9 km/h 71 % 0 mm
20:47 -8.3 °C -11.3 °C 33992.1 hPa ENE 22 km/h 22 km/h 71 % 0 mm
20:50 -9.2 °C -11.2 °C 33958.2 hPa NE 12.9 km/h 12.9 km/h 79 % 0 mm
20:53 -8.4 °C -11.2 °C 33992.1 hPa NNE 15.3 km/h 15.3 km/h 72 % 0 mm
20:58 -8.4 °C -11.2 °C 33992.1 hPa East 17.9 km/h 17.9 km/h 73 % 0 mm
21:00 -9.3 °C -11.3 °C 33958.2 hPa NE 7.7 km/h 10.3 km/h 79 % 0 mm
21:03 -8.5 °C -11.2 °C 33992.1 hPa North 20.9 km/h 20.9 km/h 73 % 0 mm
21:08 -8.5 °C -11.1 °C 33992.1 hPa NNE 15 km/h 15 km/h 74 % 0 mm
21:10 -9.3 °C -11.3 °C 33958.2 hPa NE 12.9 km/h 12.9 km/h 79 % 0 mm
21:13 -8.6 °C -11.2 °C 33992.1 hPa East 26.9 km/h 26.9 km/h 74 % 0 mm
21:19 -8.6 °C -11.1 °C 33992.1 hPa NE 23.8 km/h 23.8 km/h 75 % 0 mm
21:20 -9.4 °C -11.4 °C 33924.3 hPa NE 7.7 km/h 15.6 km/h 79 % 0 mm
21:24 -8.7 °C -11.2 °C 33992.1 hPa ENE 17.9 km/h 17.9 km/h 75 % 0 mm
21:29 -8.7 °C -11 °C 33992.1 hPa East 17.9 km/h 17.9 km/h 76 % 0 mm
21:30 -9.4 °C -11.4 °C 33924.3 hPa NE 7.7 km/h 10.3 km/h 79 % 0 mm
21:34 -8.7 °C -11 °C 33992.1 hPa ENE 11.9 km/h 11.9 km/h 76 % 0 mm
21:39 -8.7 °C -11 °C 33992.1 hPa ENE 18.3 km/h 18.3 km/h 76 % 0 mm
21:40 -9.4 °C -11.3 °C 33924.3 hPa ENE 12.9 km/h 15.6 km/h 80 % 0 mm
21:44 -8.7 °C -10.9 °C 33992.1 hPa ENE 15.6 km/h 15.6 km/h 77 % 0 mm
21:49 -8.7 °C -10.9 °C 33992.1 hPa ENE 9 km/h 9 km/h 77 % 0 mm
21:50 -9.4 °C -11.3 °C 33924.3 hPa NE 7.7 km/h 15.6 km/h 80 % 0 mm
21:54 -8.8 °C -11 °C 33992.1 hPa NNE 15 km/h 15 km/h 77 % 0 mm
21:59 -8.8 °C -10.9 °C 33992.1 hPa East 15 km/h 15 km/h 78 % 0 mm
22:00 -9.5 °C -11.4 °C 33924.3 hPa NE 7.7 km/h 12.9 km/h 80 % 0 mm
22:04 -8.8 °C -10.9 °C 33992.1 hPa East 11.9 km/h 11.9 km/h 78 % 0 mm
22:10 -8.8 °C -10.9 °C 33992.1 hPa NNE 12.2 km/h 12.7 km/h 78 % 0 mm
22:15 -8.9 °C -11 °C 33992.1 hPa NNE 11.9 km/h 11.9 km/h 78 % 0 mm
22:20 -8.9 °C -11 °C 33992.1 hPa NNE 15 km/h 15 km/h 78 % 0 mm
22:25 -8.9 °C -10.9 °C 33992.1 hPa ENE 7.7 km/h 15.6 km/h 79 % 0 mm
22:30 -8.9 °C -10.9 °C 33992.1 hPa NNE 15 km/h 15 km/h 79 % 0 mm
22:35 -8.9 °C -10.9 °C 33992.1 hPa ENE 7.7 km/h 25.9 km/h 79 % 0 mm
22:40 -8.9 °C -10.9 °C 33992.1 hPa NE 17.9 km/h 17.9 km/h 79 % 0 mm
22:45 -8.9 °C -10.9 °C 33992.1 hPa NE 11.9 km/h 11.9 km/h 79 % 0 mm
22:50 -8.9 °C -10.9 °C 33992.1 hPa NE 7.7 km/h 15.6 km/h 79 % 0 mm
22:55 -8.9 °C -10.9 °C 33992.1 hPa NE 12.9 km/h 15.6 km/h 79 % 0 mm
23:00 -8.9 °C -10.9 °C 33992.1 hPa NE 5.1 km/h 15.6 km/h 79 % 0 mm
23:05 -8.9 °C -10.9 °C 33992.1 hPa ESE 11.9 km/h 11.9 km/h 79 % 0 mm
23:10 -8.9 °C -10.9 °C 33992.1 hPa ENE 17.9 km/h 17.9 km/h 79 % 0 mm
23:15 -8.9 °C -10.9 °C 33992.1 hPa ESE 16.1 km/h 16.1 km/h 79 % 0 mm
23:20 -8.9 °C -10.9 °C 33992.1 hPa ENE 15 km/h 15 km/h 79 % 0 mm
23:26 -8.9 °C -10.9 °C 33992.1 hPa ENE 11.9 km/h 11.9 km/h 79 % 0 mm
23:30 -9.6 °C -11.4 °C 33924.3 hPa ENE 7.7 km/h 10.3 km/h 81 % 0 mm
23:31 -8.9 °C -10.9 °C 33992.1 hPa NE 16.1 km/h 16.1 km/h 79 % 0 mm
23:36 -8.9 °C -10.9 °C 33992.1 hPa NNE 9 km/h 9 km/h 79 % 0 mm
23:40 -9.6 °C -11.4 °C 33924.3 hPa ENE 7.7 km/h 10.3 km/h 81 % 0 mm
23:41 -8.9 °C -10.9 °C 33992.1 hPa NNE 15 km/h 15 km/h 79 % 0 mm
23:46 -9 °C -11 °C 33992.1 hPa NNE 17.9 km/h 17.9 km/h 79 % 0 mm
23:50 -9.6 °C -11.4 °C 33924.3 hPa ENE 7.7 km/h 10.3 km/h 81 % 0 mm
23:51 -9 °C -11 °C 33992.1 hPa NNE 10.3 km/h 10.3 km/h 79 % 0 mm
23:57 -9 °C -11 °C 33992.1 hPa East 12.2 km/h 12.2 km/h 79 % 0 mm
Meteo Sesrovires
Elogis d' Weather Underground - 2 mb

Guio original per  Jim McMurry - jmcmurry@mwt.net Adaptat per a la plantilla per  Wim van der Kuil - Leuven-Template.eu

Trobareu la nostra informacio del temps tambe a:

Weather Underground

AWEKAS